sensor_id;sensor_type;location;lat;lon;timestamp;P1;durP1;ratioP1;P2;durP2;ratioP2
22780;SDS011;11557;50.884;4.322;2023-03-14T00:01:36;6.55;;;1.67;;
22780;SDS011;11557;50.884;4.322;2023-03-14T00:04:03;10.70;;;1.83;;
22780;SDS011;11557;50.884;4.322;2023-03-14T00:06:29;11.27;;;1.70;;
22780;SDS011;11557;50.884;4.322;2023-03-14T00:08:56;9.55;;;2.00;;
22780;SDS011;11557;50.884;4.322;2023-03-14T00:11:22;8.25;;;1.52;;
22780;SDS011;11557;50.884;4.322;2023-03-14T00:13:48;8.88;;;1.73;;
22780;SDS011;11557;50.884;4.322;2023-03-14T00:16:15;7.47;;;1.50;;
22780;SDS011;11557;50.884;4.322;2023-03-14T00:18:41;7.63;;;1.60;;
22780;SDS011;11557;50.884;4.322;2023-03-14T00:21:07;7.40;;;1.90;;
22780;SDS011;11557;50.884;4.322;2023-03-14T00:23:35;9.15;;;2.58;;
22780;SDS011;11557;50.884;4.322;2023-03-14T00:26:03;11.68;;;2.38;;
22780;SDS011;11557;50.884;4.322;2023-03-14T00:28:33;7.55;;;2.13;;
22780;SDS011;11557;50.884;4.322;2023-03-14T00:30:59;7.50;;;2.00;;
22780;SDS011;11557;50.884;4.322;2023-03-14T00:33:28;8.40;;;2.03;;
22780;SDS011;11557;50.884;4.322;2023-03-14T00:38:24;10.35;;;2.20;;
22780;SDS011;11557;50.884;4.322;2023-03-14T00:40:50;11.05;;;2.53;;
22780;SDS011;11557;50.884;4.322;2023-03-14T00:43:17;11.40;;;2.38;;
22780;SDS011;11557;50.884;4.322;2023-03-14T00:45:43;11.48;;;2.22;;
22780;SDS011;11557;50.884;4.322;2023-03-14T00:48:09;6.70;;;2.25;;
22780;SDS011;11557;50.884;4.322;2023-03-14T00:50:35;9.57;;;2.10;;
22780;SDS011;11557;50.884;4.322;2023-03-14T00:53:00;9.88;;;2.00;;
22780;SDS011;11557;50.884;4.322;2023-03-14T00:55:26;9.40;;;1.92;;
22780;SDS011;11557;50.884;4.322;2023-03-14T00:57:53;12.63;;;2.45;;
22780;SDS011;11557;50.884;4.322;2023-03-14T01:00:18;8.82;;;1.90;;
22780;SDS011;11557;50.884;4.322;2023-03-14T01:02:44;9.60;;;2.50;;
22780;SDS011;11557;50.884;4.322;2023-03-14T01:05:10;10.20;;;2.35;;
22780;SDS011;11557;50.884;4.322;2023-03-14T01:07:36;9.73;;;2.22;;
22780;SDS011;11557;50.884;4.322;2023-03-14T01:10:03;10.73;;;2.28;;
22780;SDS011;11557;50.884;4.322;2023-03-14T01:12:30;11.95;;;2.20;;
22780;SDS011;11557;50.884;4.322;2023-03-14T01:14:55;10.18;;;2.13;;
22780;SDS011;11557;50.884;4.322;2023-03-14T01:17:22;17.05;;;2.33;;
22780;SDS011;11557;50.884;4.322;2023-03-14T01:19:48;10.85;;;2.85;;
22780;SDS011;11557;50.884;4.322;2023-03-14T01:22:13;14.65;;;2.60;;
22780;SDS011;11557;50.884;4.322;2023-03-14T01:24:39;10.88;;;2.20;;
22780;SDS011;11557;50.884;4.322;2023-03-14T01:27:05;17.85;;;2.70;;
22780;SDS011;11557;50.884;4.322;2023-03-14T01:29:30;12.73;;;2.55;;
22780;SDS011;11557;50.884;4.322;2023-03-14T01:31:56;10.07;;;1.98;;
22780;SDS011;11557;50.884;4.322;2023-03-14T01:34:22;12.25;;;1.92;;
22780;SDS011;11557;50.884;4.322;2023-03-14T01:36:48;11.15;;;2.33;;
22780;SDS011;11557;50.884;4.322;2023-03-14T01:39:13;15.23;;;3.10;;
22780;SDS011;11557;50.884;4.322;2023-03-14T01:41:39;14.93;;;3.08;;
22780;SDS011;11557;50.884;4.322;2023-03-14T01:44:05;9.63;;;1.88;;
22780;SDS011;11557;50.884;4.322;2023-03-14T01:46:41;10.32;;;2.00;;
22780;SDS011;11557;50.884;4.322;2023-03-14T01:51:55;13.82;;;2.35;;
22780;SDS011;11557;50.884;4.322;2023-03-14T01:57:12;10.45;;;1.67;;
22780;SDS011;11557;50.884;4.322;2023-03-14T01:59:43;12.13;;;1.88;;
22780;SDS011;11557;50.884;4.322;2023-03-14T02:02:17;8.68;;;2.08;;
22780;SDS011;11557;50.884;4.322;2023-03-14T02:04:43;8.15;;;1.45;;
22780;SDS011;11557;50.884;4.322;2023-03-14T02:07:17;7.28;;;1.70;;
22780;SDS011;11557;50.884;4.322;2023-03-14T02:09:47;6.38;;;1.55;;
22780;SDS011;11557;50.884;4.322;2023-03-14T02:12:15;7.93;;;1.50;;
22780;SDS011;11557;50.884;4.322;2023-03-14T02:14:42;6.43;;;1.10;;
22780;SDS011;11557;50.884;4.322;2023-03-14T02:17:13;7.35;;;1.27;;
22780;SDS011;11557;50.884;4.322;2023-03-14T02:22:44;7.28;;;1.30;;
22780;SDS011;11557;50.884;4.322;2023-03-14T02:25:17;10.85;;;2.33;;
22780;SDS011;11557;50.884;4.322;2023-03-14T02:27:51;5.70;;;1.02;;
22780;SDS011;11557;50.884;4.322;2023-03-14T02:30:19;7.13;;;1.30;;
22780;SDS011;11557;50.884;4.322;2023-03-14T02:32:48;8.57;;;1.60;;
22780;SDS011;11557;50.884;4.322;2023-03-14T02:35:25;10.20;;;1.75;;
22780;SDS011;11557;50.884;4.322;2023-03-14T02:42:54;5.47;;;1.33;;
22780;SDS011;11557;50.884;4.322;2023-03-14T02:47:47;6.68;;;1.13;;
22780;SDS011;11557;50.884;4.322;2023-03-14T02:50:21;6.38;;;1.30;;
22780;SDS011;11557;50.884;4.322;2023-03-14T02:52:50;9.93;;;1.38;;
22780;SDS011;11557;50.884;4.322;2023-03-14T02:55:20;7.47;;;1.45;;
22780;SDS011;11557;50.884;4.322;2023-03-14T02:57:49;5.77;;;1.60;;
22780;SDS011;11557;50.884;4.322;2023-03-14T03:00:15;12.20;;;3.05;;
22780;SDS011;11557;50.884;4.322;2023-03-14T03:02:41;10.23;;;3.08;;
22780;SDS011;11557;50.884;4.322;2023-03-14T03:05:07;11.00;;;3.10;;
22780;SDS011;11557;50.884;4.322;2023-03-14T03:07:33;9.88;;;3.80;;
22780;SDS011;11557;50.884;4.322;2023-03-14T03:09:59;13.70;;;4.22;;
22780;SDS011;11557;50.884;4.322;2023-03-14T03:12:25;10.38;;;4.10;;
22780;SDS011;11557;50.884;4.322;2023-03-14T03:14:50;14.25;;;4.63;;
22780;SDS011;11557;50.884;4.322;2023-03-14T03:17:16;16.08;;;5.28;;
22780;SDS011;11557;50.884;4.322;2023-03-14T03:19:42;14.13;;;5.53;;
22780;SDS011;11557;50.884;4.322;2023-03-14T03:22:08;15.15;;;5.55;;
22780;SDS011;11557;50.884;4.322;2023-03-14T03:24:37;16.30;;;5.50;;
22780;SDS011;11557;50.884;4.322;2023-03-14T03:27:02;14.18;;;5.40;;
22780;SDS011;11557;50.884;4.322;2023-03-14T03:29:28;13.43;;;4.50;;
22780;SDS011;11557;50.884;4.322;2023-03-14T03:31:55;14.98;;;4.45;;
22780;SDS011;11557;50.884;4.322;2023-03-14T03:34:20;16.63;;;4.75;;
22780;SDS011;11557;50.884;4.322;2023-03-14T03:36:46;19.15;;;5.18;;
22780;SDS011;11557;50.884;4.322;2023-03-14T03:39:13;17.23;;;4.70;;
22780;SDS011;11557;50.884;4.322;2023-03-14T03:41:38;18.50;;;4.60;;
22780;SDS011;11557;50.884;4.322;2023-03-14T03:44:04;18.00;;;3.97;;
22780;SDS011;11557;50.884;4.322;2023-03-14T03:46:30;13.00;;;4.78;;
22780;SDS011;11557;50.884;4.322;2023-03-14T03:48:58;17.95;;;3.58;;
22780;SDS011;11557;50.884;4.322;2023-03-14T03:51:25;11.90;;;3.63;;
22780;SDS011;11557;50.884;4.322;2023-03-14T03:53:51;14.10;;;3.40;;
22780;SDS011;11557;50.884;4.322;2023-03-14T03:56:17;14.15;;;2.85;;
22780;SDS011;11557;50.884;4.322;2023-03-14T03:58:43;11.75;;;2.92;;
22780;SDS011;11557;50.884;4.322;2023-03-14T04:01:09;14.45;;;3.25;;
22780;SDS011;11557;50.884;4.322;2023-03-14T04:03:35;15.38;;;2.90;;
22780;SDS011;11557;50.884;4.322;2023-03-14T04:06:13;14.65;;;2.97;;
22780;SDS011;11557;50.884;4.322;2023-03-14T04:08:39;9.88;;;3.05;;
22780;SDS011;11557;50.884;4.322;2023-03-14T04:11:08;9.40;;;2.75;;
22780;SDS011;11557;50.884;4.322;2023-03-14T04:13:34;11.32;;;2.75;;
22780;SDS011;11557;50.884;4.322;2023-03-14T04:16:00;10.95;;;2.47;;
22780;SDS011;11557;50.884;4.322;2023-03-14T04:18:26;9.18;;;2.10;;
22780;SDS011;11557;50.884;4.322;2023-03-14T04:20:53;12.75;;;2.10;;
22780;SDS011;11557;50.884;4.322;2023-03-14T04:23:19;11.73;;;2.20;;
22780;SDS011;11557;50.884;4.322;2023-03-14T04:25:46;6.68;;;1.80;;
22780;SDS011;11557;50.884;4.322;2023-03-14T04:28:12;5.80;;;2.00;;
22780;SDS011;11557;50.884;4.322;2023-03-14T04:30:38;7.97;;;2.22;;
22780;SDS011;11557;50.884;4.322;2023-03-14T04:33:03;9.77;;;2.20;;
22780;SDS011;11557;50.884;4.322;2023-03-14T04:35:32;6.68;;;1.83;;
22780;SDS011;11557;50.884;4.322;2023-03-14T04:37:58;6.57;;;1.70;;
22780;SDS011;11557;50.884;4.322;2023-03-14T04:40:25;9.10;;;2.28;;
22780;SDS011;11557;50.884;4.322;2023-03-14T04:42:51;8.40;;;2.13;;
22780;SDS011;11557;50.884;4.322;2023-03-14T04:45:16;10.77;;;2.40;;
22780;SDS011;11557;50.884;4.322;2023-03-14T04:47:42;6.15;;;2.03;;
22780;SDS011;11557;50.884;4.322;2023-03-14T04:50:08;7.03;;;2.00;;
22780;SDS011;11557;50.884;4.322;2023-03-14T04:52:34;6.13;;;1.75;;
22780;SDS011;11557;50.884;4.322;2023-03-14T04:55:00;7.75;;;1.98;;
22780;SDS011;11557;50.884;4.322;2023-03-14T04:57:26;5.68;;;1.85;;
22780;SDS011;11557;50.884;4.322;2023-03-14T04:59:52;7.18;;;2.05;;
22780;SDS011;11557;50.884;4.322;2023-03-14T05:02:17;5.28;;;2.38;;
22780;SDS011;11557;50.884;4.322;2023-03-14T05:04:43;8.82;;;2.50;;
22780;SDS011;11557;50.884;4.322;2023-03-14T05:07:09;4.55;;;2.05;;
22780;SDS011;11557;50.884;4.322;2023-03-14T05:09:35;5.43;;;2.17;;
22780;SDS011;11557;50.884;4.322;2023-03-14T05:12:00;7.97;;;3.03;;
22780;SDS011;11557;50.884;4.322;2023-03-14T05:14:26;8.80;;;2.75;;
22780;SDS011;11557;50.884;4.322;2023-03-14T05:16:52;7.63;;;2.60;;
22780;SDS011;11557;50.884;4.322;2023-03-14T05:19:17;5.35;;;2.90;;
22780;SDS011;11557;50.884;4.322;2023-03-14T05:21:43;7.70;;;3.15;;
22780;SDS011;11557;50.884;4.322;2023-03-14T05:24:09;4.70;;;2.60;;
22780;SDS011;11557;50.884;4.322;2023-03-14T05:26:34;4.00;;;2.80;;
22780;SDS011;11557;50.884;4.322;2023-03-14T05:29:00;7.88;;;3.00;;
22780;SDS011;11557;50.884;4.322;2023-03-14T05:31:26;7.63;;;2.97;;
22780;SDS011;11557;50.884;4.322;2023-03-14T05:33:52;8.32;;;2.85;;
22780;SDS011;11557;50.884;4.322;2023-03-14T05:36:17;9.40;;;2.92;;
22780;SDS011;11557;50.884;4.322;2023-03-14T05:38:43;5.45;;;3.72;;
22780;SDS011;11557;50.884;4.322;2023-03-14T05:41:09;6.25;;;3.35;;
22780;SDS011;11557;50.884;4.322;2023-03-14T05:43:35;4.63;;;3.40;;
22780;SDS011;11557;50.884;4.322;2023-03-14T05:46:00;5.70;;;2.85;;
22780;SDS011;11557;50.884;4.322;2023-03-14T05:48:26;4.15;;;3.25;;
22780;SDS011;11557;50.884;4.322;2023-03-14T05:50:55;4.65;;;2.92;;
22780;SDS011;11557;50.884;4.322;2023-03-14T05:53:21;4.63;;;3.15;;
22780;SDS011;11557;50.884;4.322;2023-03-14T05:55:50;5.22;;;3.25;;
22780;SDS011;11557;50.884;4.322;2023-03-14T05:58:17;6.13;;;3.17;;
22780;SDS011;11557;50.884;4.322;2023-03-14T06:00:42;6.30;;;5.00;;
22780;SDS011;11557;50.884;4.322;2023-03-14T06:03:08;5.70;;;3.42;;
22780;SDS011;11557;50.884;4.322;2023-03-14T06:05:34;4.13;;;3.15;;
22780;SDS011;11557;50.884;4.322;2023-03-14T06:08:00;8.82;;;4.10;;
22780;SDS011;11557;50.884;4.322;2023-03-14T06:10:25;8.23;;;3.90;;
22780;SDS011;11557;50.884;4.322;2023-03-14T06:12:51;7.03;;;3.95;;
22780;SDS011;11557;50.884;4.322;2023-03-14T06:15:17;6.97;;;3.78;;
22780;SDS011;11557;50.884;4.322;2023-03-14T06:17:43;6.10;;;3.95;;
22780;SDS011;11557;50.884;4.322;2023-03-14T06:20:09;8.48;;;4.50;;
22780;SDS011;11557;50.884;4.322;2023-03-14T06:22:35;8.00;;;4.15;;
22780;SDS011;11557;50.884;4.322;2023-03-14T06:25:01;7.80;;;3.90;;
22780;SDS011;11557;50.884;4.322;2023-03-14T06:27:28;7.18;;;3.45;;
22780;SDS011;11557;50.884;4.322;2023-03-14T06:29:54;8.65;;;3.63;;
22780;SDS011;11557;50.884;4.322;2023-03-14T06:32:20;4.55;;;3.28;;
22780;SDS011;11557;50.884;4.322;2023-03-14T06:34:46;5.32;;;3.40;;
22780;SDS011;11557;50.884;4.322;2023-03-14T06:37:11;5.75;;;3.20;;
22780;SDS011;11557;50.884;4.322;2023-03-14T06:39:37;8.13;;;3.13;;
22780;SDS011;11557;50.884;4.322;2023-03-14T06:42:04;5.53;;;3.30;;
22780;SDS011;11557;50.884;4.322;2023-03-14T06:44:30;8.07;;;3.78;;
22780;SDS011;11557;50.884;4.322;2023-03-14T06:46:56;7.97;;;3.53;;
22780;SDS011;11557;50.884;4.322;2023-03-14T06:49:22;6.88;;;3.40;;
22780;SDS011;11557;50.884;4.322;2023-03-14T06:51:47;4.88;;;3.08;;
22780;SDS011;11557;50.884;4.322;2023-03-14T06:54:13;4.43;;;3.10;;
22780;SDS011;11557;50.884;4.322;2023-03-14T06:56:39;4.97;;;3.13;;
22780;SDS011;11557;50.884;4.322;2023-03-14T06:59:05;8.77;;;3.15;;
22780;SDS011;11557;50.884;4.322;2023-03-14T07:01:31;6.55;;;3.25;;
22780;SDS011;11557;50.884;4.322;2023-03-14T07:04:00;6.47;;;3.08;;
22780;SDS011;11557;50.884;4.322;2023-03-14T07:06:26;5.55;;;3.40;;
22780;SDS011;11557;50.884;4.322;2023-03-14T07:08:54;4.85;;;2.35;;
22780;SDS011;11557;50.884;4.322;2023-03-14T07:11:20;6.68;;;2.15;;
22780;SDS011;11557;50.884;4.322;2023-03-14T07:13:46;11.38;;;2.92;;
22780;SDS011;11557;50.884;4.322;2023-03-14T07:16:12;3.60;;;1.92;;
22780;SDS011;11557;50.884;4.322;2023-03-14T07:18:38;5.95;;;2.30;;
22780;SDS011;11557;50.884;4.322;2023-03-14T07:21:04;3.03;;;1.60;;
22780;SDS011;11557;50.884;4.322;2023-03-14T07:23:31;5.88;;;2.08;;
22780;SDS011;11557;50.884;4.322;2023-03-14T07:25:56;8.27;;;2.10;;
22780;SDS011;11557;50.884;4.322;2023-03-14T07:28:22;5.95;;;2.25;;
22780;SDS011;11557;50.884;4.322;2023-03-14T07:30:48;6.35;;;2.20;;
22780;SDS011;11557;50.884;4.322;2023-03-14T07:33:14;7.18;;;3.03;;
22780;SDS011;11557;50.884;4.322;2023-03-14T07:35:39;7.22;;;2.83;;
22780;SDS011;11557;50.884;4.322;2023-03-14T07:38:05;5.70;;;2.28;;
22780;SDS011;11557;50.884;4.322;2023-03-14T07:40:31;6.07;;;2.83;;
22780;SDS011;11557;50.884;4.322;2023-03-14T07:42:57;6.32;;;2.72;;
22780;SDS011;11557;50.884;4.322;2023-03-14T07:45:23;7.47;;;3.10;;
22780;SDS011;11557;50.884;4.322;2023-03-14T07:47:48;2.53;;;1.83;;
22780;SDS011;11557;50.884;4.322;2023-03-14T07:50:14;7.57;;;3.40;;
22780;SDS011;11557;50.884;4.322;2023-03-14T07:52:40;6.72;;;3.75;;
22780;SDS011;11557;50.884;4.322;2023-03-14T07:55:06;8.05;;;4.22;;
22780;SDS011;11557;50.884;4.322;2023-03-14T07:57:32;8.75;;;3.90;;
22780;SDS011;11557;50.884;4.322;2023-03-14T07:59:57;7.80;;;4.32;;
22780;SDS011;11557;50.884;4.322;2023-03-14T08:02:23;9.88;;;4.78;;
22780;SDS011;11557;50.884;4.322;2023-03-14T08:04:49;7.03;;;4.40;;
22780;SDS011;11557;50.884;4.322;2023-03-14T08:07:15;5.43;;;4.40;;
22780;SDS011;11557;50.884;4.322;2023-03-14T08:09:41;10.13;;;4.95;;
22780;SDS011;11557;50.884;4.322;2023-03-14T08:12:07;6.38;;;4.90;;
22780;SDS011;11557;50.884;4.322;2023-03-14T08:14:33;8.95;;;4.70;;
22780;SDS011;11557;50.884;4.322;2023-03-14T08:17:01;8.38;;;3.63;;
22780;SDS011;11557;50.884;4.322;2023-03-14T08:19:26;6.20;;;3.65;;
22780;SDS011;11557;50.884;4.322;2023-03-14T08:21:52;5.03;;;3.92;;
22780;SDS011;11557;50.884;4.322;2023-03-14T08:24:18;6.72;;;3.05;;
22780;SDS011;11557;50.884;4.322;2023-03-14T08:26:43;5.40;;;3.63;;
22780;SDS011;11557;50.884;4.322;2023-03-14T08:29:09;7.88;;;3.75;;
22780;SDS011;11557;50.884;4.322;2023-03-14T08:31:37;4.80;;;3.45;;
22780;SDS011;11557;50.884;4.322;2023-03-14T08:34:03;6.25;;;3.63;;
22780;SDS011;11557;50.884;4.322;2023-03-14T08:36:29;4.68;;;2.60;;
22780;SDS011;11557;50.884;4.322;2023-03-14T08:38:56;4.70;;;2.47;;
22780;SDS011;11557;50.884;4.322;2023-03-14T08:41:22;5.43;;;3.40;;
22780;SDS011;11557;50.884;4.322;2023-03-14T08:43:48;6.15;;;3.33;;
22780;SDS011;11557;50.884;4.322;2023-03-14T08:46:13;8.95;;;3.75;;
22780;SDS011;11557;50.884;4.322;2023-03-14T08:48:39;3.50;;;3.10;;
22780;SDS011;11557;50.884;4.322;2023-03-14T08:51:06;8.52;;;3.42;;
22780;SDS011;11557;50.884;4.322;2023-03-14T08:53:36;7.57;;;4.03;;
22780;SDS011;11557;50.884;4.322;2023-03-14T08:56:01;9.57;;;3.72;;
22780;SDS011;11557;50.884;4.322;2023-03-14T08:58:28;11.55;;;3.78;;
22780;SDS011;11557;50.884;4.322;2023-03-14T09:00:55;4.88;;;3.28;;
22780;SDS011;11557;50.884;4.322;2023-03-14T09:03:21;8.65;;;3.65;;
22780;SDS011;11557;50.884;4.322;2023-03-14T09:05:48;8.73;;;4.13;;
22780;SDS011;11557;50.884;4.322;2023-03-14T09:08:14;12.10;;;5.07;;
22780;SDS011;11557;50.884;4.322;2023-03-14T09:10:40;10.60;;;4.82;;
22780;SDS011;11557;50.884;4.322;2023-03-14T09:13:06;8.80;;;4.28;;
22780;SDS011;11557;50.884;4.322;2023-03-14T09:15:32;8.73;;;4.28;;
22780;SDS011;11557;50.884;4.322;2023-03-14T09:17:58;11.02;;;5.05;;
22780;SDS011;11557;50.884;4.322;2023-03-14T09:20:23;13.25;;;4.68;;
22780;SDS011;11557;50.884;4.322;2023-03-14T09:22:49;8.50;;;3.35;;
22780;SDS011;11557;50.884;4.322;2023-03-14T09:25:15;11.52;;;3.65;;
22780;SDS011;11557;50.884;4.322;2023-03-14T09:27:41;14.50;;;3.55;;
22780;SDS011;11557;50.884;4.322;2023-03-14T09:30:07;12.27;;;3.47;;
22780;SDS011;11557;50.884;4.322;2023-03-14T09:32:34;10.95;;;3.90;;
22780;SDS011;11557;50.884;4.322;2023-03-14T09:34:59;8.85;;;3.80;;
22780;SDS011;11557;50.884;4.322;2023-03-14T09:37:25;14.30;;;3.22;;
22780;SDS011;11557;50.884;4.322;2023-03-14T09:39:51;9.35;;;3.30;;
22780;SDS011;11557;50.884;4.322;2023-03-14T09:42:18;10.13;;;3.55;;
22780;SDS011;11557;50.884;4.322;2023-03-14T09:44:53;13.57;;;3.05;;
22780;SDS011;11557;50.884;4.322;2023-03-14T09:47:26;8.18;;;2.58;;
22780;SDS011;11557;50.884;4.322;2023-03-14T09:49:53;8.95;;;3.33;;
22780;SDS011;11557;50.884;4.322;2023-03-14T09:52:32;10.60;;;3.63;;
22780;SDS011;11557;50.884;4.322;2023-03-14T09:57:29;12.10;;;3.72;;
22780;SDS011;11557;50.884;4.322;2023-03-14T09:59:58;8.15;;;3.67;;
22780;SDS011;11557;50.884;4.322;2023-03-14T10:02:37;12.95;;;4.65;;
22780;SDS011;11557;50.884;4.322;2023-03-14T10:05:07;11.85;;;3.92;;
22780;SDS011;11557;50.884;4.322;2023-03-14T10:07:39;11.25;;;3.45;;
22780;SDS011;11557;50.884;4.322;2023-03-14T10:10:09;10.95;;;3.03;;
22780;SDS011;11557;50.884;4.322;2023-03-14T10:12:40;16.23;;;3.90;;
22780;SDS011;11557;50.884;4.322;2023-03-14T10:15:11;10.25;;;3.70;;
22780;SDS011;11557;50.884;4.322;2023-03-14T10:17:59;10.82;;;2.95;;
22780;SDS011;11557;50.884;4.322;2023-03-14T10:20:39;15.30;;;3.03;;
22780;SDS011;11557;50.884;4.322;2023-03-14T10:25:39;7.47;;;2.38;;
22780;SDS011;11557;50.884;4.322;2023-03-14T10:28:26;9.35;;;2.20;;
22780;SDS011;11557;50.884;4.322;2023-03-14T10:30:54;10.75;;;2.97;;
22780;SDS011;11557;50.884;4.322;2023-03-14T10:33:24;8.75;;;2.45;;
22780;SDS011;11557;50.884;4.322;2023-03-14T10:38:31;8.82;;;2.17;;
22780;SDS011;11557;50.884;4.322;2023-03-14T10:41:01;12.18;;;2.30;;
22780;SDS011;11557;50.884;4.322;2023-03-14T10:43:39;4.45;;;2.20;;
22780;SDS011;11557;50.884;4.322;2023-03-14T10:46:08;9.57;;;2.50;;
22780;SDS011;11557;50.884;4.322;2023-03-14T10:48:38;9.25;;;2.60;;
22780;SDS011;11557;50.884;4.322;2023-03-14T10:51:09;8.00;;;2.75;;
22780;SDS011;11557;50.884;4.322;2023-03-14T10:54:01;8.98;;;2.83;;
22780;SDS011;11557;50.884;4.322;2023-03-14T10:56:36;9.93;;;2.15;;
22780;SDS011;11557;50.884;4.322;2023-03-14T10:59:03;10.45;;;2.20;;
22780;SDS011;11557;50.884;4.322;2023-03-14T11:06:55;9.38;;;2.35;;
22780;SDS011;11557;50.884;4.322;2023-03-14T11:15:32;6.53;;;1.63;;
22780;SDS011;11557;50.884;4.322;2023-03-14T11:29:35;2.58;;;1.13;;
22780;SDS011;11557;50.884;4.322;2023-03-14T11:31:57;2.47;;;1.10;;
22780;SDS011;11557;50.884;4.322;2023-03-14T11:39:41;3.20;;;0.85;;
22780;SDS011;11557;50.884;4.322;2023-03-14T11:42:12;1.98;;;0.60;;
22780;SDS011;11557;50.884;4.322;2023-03-14T11:44:41;3.17;;;0.52;;
22780;SDS011;11557;50.884;4.322;2023-03-14T11:47:25;2.55;;;0.60;;
22780;SDS011;11557;50.884;4.322;2023-03-14T11:52:50;3.65;;;0.80;;
22780;SDS011;11557;50.884;4.322;2023-03-14T11:55:23;2.30;;;0.60;;
22780;SDS011;11557;50.884;4.322;2023-03-14T11:57:55;3.20;;;0.80;;
22780;SDS011;11557;50.884;4.322;2023-03-14T12:00:25;4.65;;;0.90;;
22780;SDS011;11557;50.884;4.322;2023-03-14T12:03:02;3.45;;;1.30;;
22780;SDS011;11557;50.884;4.322;2023-03-14T12:05:46;3.92;;;1.17;;
22780;SDS011;11557;50.884;4.322;2023-03-14T12:13:53;3.55;;;1.42;;
22780;SDS011;11557;50.884;4.322;2023-03-14T12:18:49;2.83;;;1.30;;
22780;SDS011;11557;50.884;4.322;2023-03-14T12:21:18;3.00;;;1.33;;
22780;SDS011;11557;50.884;4.322;2023-03-14T12:28:51;2.70;;;1.15;;
22780;SDS011;11557;50.884;4.322;2023-03-14T12:31:36;5.78;;;1.40;;
22780;SDS011;11557;50.884;4.322;2023-03-14T12:44:39;4.70;;;1.85;;
22780;SDS011;11557;50.884;4.322;2023-03-14T12:47:53;3.45;;;1.65;;
22780;SDS011;11557;50.884;4.322;2023-03-14T12:50:01;4.30;;;1.05;;
22780;SDS011;11557;50.884;4.322;2023-03-14T12:58:35;4.40;;;1.90;;
22780;SDS011;11557;50.884;4.322;2023-03-14T13:01:16;3.15;;;1.58;;
22780;SDS011;11557;50.884;4.322;2023-03-14T13:03:45;4.10;;;2.00;;
22780;SDS011;11557;50.884;4.322;2023-03-14T13:11:54;6.68;;;2.35;;
22780;SDS011;11557;50.884;4.322;2023-03-14T13:14:21;9.45;;;2.90;;
22780;SDS011;11557;50.884;4.322;2023-03-14T13:16:48;10.27;;;2.85;;
22780;SDS011;11557;50.884;4.322;2023-03-14T13:19:20;11.68;;;2.90;;
22780;SDS011;11557;50.884;4.322;2023-03-14T13:21:51;10.57;;;2.58;;
22780;SDS011;11557;50.884;4.322;2023-03-14T13:24:27;10.18;;;3.05;;
22780;SDS011;11557;50.884;4.322;2023-03-14T13:26:54;10.15;;;2.13;;
22780;SDS011;11557;50.884;4.322;2023-03-14T13:29:21;12.93;;;2.60;;
22780;SDS011;11557;50.884;4.322;2023-03-14T13:32:01;14.02;;;2.20;;
22780;SDS011;11557;50.884;4.322;2023-03-14T13:34:41;13.40;;;3.08;;
22780;SDS011;11557;50.884;4.322;2023-03-14T13:37:14;12.55;;;2.40;;
22780;SDS011;11557;50.884;4.322;2023-03-14T13:39:54;12.23;;;2.97;;
22780;SDS011;11557;50.884;4.322;2023-03-14T13:42:26;13.88;;;3.75;;
22780;SDS011;11557;50.884;4.322;2023-03-14T13:44:54;19.55;;;3.22;;
22780;SDS011;11557;50.884;4.322;2023-03-14T13:47:21;21.13;;;4.03;;
22780;SDS011;11557;50.884;4.322;2023-03-14T13:49:49;15.45;;;3.20;;
22780;SDS011;11557;50.884;4.322;2023-03-14T13:54:48;17.67;;;2.58;;
22780;SDS011;11557;50.884;4.322;2023-03-14T13:57:17;22.38;;;4.07;;
22780;SDS011;11557;50.884;4.322;2023-03-14T13:59:43;23.15;;;3.35;;
22780;SDS011;11557;50.884;4.322;2023-03-14T14:02:35;20.58;;;3.20;;
22780;SDS011;11557;50.884;4.322;2023-03-14T14:05:03;22.45;;;4.25;;
22780;SDS011;11557;50.884;4.322;2023-03-14T14:07:29;19.67;;;3.35;;
22780;SDS011;11557;50.884;4.322;2023-03-14T14:09:55;16.38;;;3.33;;
22780;SDS011;11557;50.884;4.322;2023-03-14T14:12:28;17.02;;;3.67;;
22780;SDS011;11557;50.884;4.322;2023-03-14T14:15:06;11.73;;;2.65;;
22780;SDS011;11557;50.884;4.322;2023-03-14T14:17:45;16.85;;;3.20;;
22780;SDS011;11557;50.884;4.322;2023-03-14T14:22:57;14.80;;;2.33;;
22780;SDS011;11557;50.884;4.322;2023-03-14T14:25:24;10.20;;;2.22;;
22780;SDS011;11557;50.884;4.322;2023-03-14T14:27:50;21.55;;;2.88;;
22780;SDS011;11557;50.884;4.322;2023-03-14T14:32:48;12.82;;;2.08;;
22780;SDS011;11557;50.884;4.322;2023-03-14T14:35:25;10.20;;;2.17;;
22780;SDS011;11557;50.884;4.322;2023-03-14T14:38:00;12.77;;;2.13;;
22780;SDS011;11557;50.884;4.322;2023-03-14T14:40:28;10.90;;;2.35;;
22780;SDS011;11557;50.884;4.322;2023-03-14T14:42:55;11.15;;;1.60;;
22780;SDS011;11557;50.884;4.322;2023-03-14T14:45:28;11.77;;;1.50;;
22780;SDS011;11557;50.884;4.322;2023-03-14T14:50:28;8.88;;;1.40;;
22780;SDS011;11557;50.884;4.322;2023-03-14T14:52:58;3.00;;;0.98;;
22780;SDS011;11557;50.884;4.322;2023-03-14T14:55:33;4.72;;;1.08;;
22780;SDS011;11557;50.884;4.322;2023-03-14T15:00:59;3.45;;;0.63;;
22780;SDS011;11557;50.884;4.322;2023-03-14T15:03:30;1.70;;;0.65;;
22780;SDS011;11557;50.884;4.322;2023-03-14T15:05:58;3.53;;;0.82;;
22780;SDS011;11557;50.884;4.322;2023-03-14T15:08:24;1.90;;;0.80;;
22780;SDS011;11557;50.884;4.322;2023-03-14T15:10:51;4.30;;;1.08;;
22780;SDS011;11557;50.884;4.322;2023-03-14T15:13:20;7.18;;;2.22;;
22780;SDS011;11557;50.884;4.322;2023-03-14T15:15:46;3.75;;;1.73;;
22780;SDS011;11557;50.884;4.322;2023-03-14T15:18:13;4.72;;;1.30;;
22780;SDS011;11557;50.884;4.322;2023-03-14T15:20:41;3.13;;;1.00;;
22780;SDS011;11557;50.884;4.322;2023-03-14T15:23:12;1.70;;;1.27;;
22780;SDS011;11557;50.884;4.322;2023-03-14T15:25:39;3.65;;;1.17;;
22780;SDS011;11557;50.884;4.322;2023-03-14T15:28:18;2.17;;;1.23;;
22780;SDS011;11557;50.884;4.322;2023-03-14T15:30:46;3.03;;;1.23;;
22780;SDS011;11557;50.884;4.322;2023-03-14T15:33:13;3.05;;;1.80;;
22780;SDS011;11557;50.884;4.322;2023-03-14T15:35:39;2.75;;;0.95;;
22780;SDS011;11557;50.884;4.322;2023-03-14T15:38:09;6.00;;;1.17;;
22780;SDS011;11557;50.884;4.322;2023-03-14T15:40:36;3.88;;;1.13;;
22780;SDS011;11557;50.884;4.322;2023-03-14T15:43:02;2.10;;;1.00;;
22780;SDS011;11557;50.884;4.322;2023-03-14T15:45:28;4.20;;;1.00;;
22780;SDS011;11557;50.884;4.322;2023-03-14T15:47:55;2.90;;;0.98;;
22780;SDS011;11557;50.884;4.322;2023-03-14T15:50:21;4.30;;;0.98;;
22780;SDS011;11557;50.884;4.322;2023-03-14T15:52:47;4.15;;;0.93;;
22780;SDS011;11557;50.884;4.322;2023-03-14T15:55:13;4.00;;;0.90;;
22780;SDS011;11557;50.884;4.322;2023-03-14T15:57:40;5.05;;;1.73;;
22780;SDS011;11557;50.884;4.322;2023-03-14T16:00:09;5.25;;;1.92;;
22780;SDS011;11557;50.884;4.322;2023-03-14T16:02:41;4.28;;;1.85;;
22780;SDS011;11557;50.884;4.322;2023-03-14T16:05:08;6.35;;;2.47;;
22780;SDS011;11557;50.884;4.322;2023-03-14T16:07:34;6.35;;;2.20;;
22780;SDS011;11557;50.884;4.322;2023-03-14T16:10:00;6.93;;;2.95;;
22780;SDS011;11557;50.884;4.322;2023-03-14T16:12:28;6.43;;;2.10;;
22780;SDS011;11557;50.884;4.322;2023-03-14T16:14:54;5.55;;;2.53;;
22780;SDS011;11557;50.884;4.322;2023-03-14T16:17:19;11.57;;;3.55;;
22780;SDS011;11557;50.884;4.322;2023-03-14T16:19:45;9.65;;;2.35;;
22780;SDS011;11557;50.884;4.322;2023-03-14T16:22:11;9.48;;;2.28;;
22780;SDS011;11557;50.884;4.322;2023-03-14T16:24:37;13.90;;;3.17;;
22780;SDS011;11557;50.884;4.322;2023-03-14T16:27:03;11.75;;;3.38;;
22780;SDS011;11557;50.884;4.322;2023-03-14T16:29:29;14.98;;;2.72;;
22780;SDS011;11557;50.884;4.322;2023-03-14T16:31:55;20.40;;;2.78;;
22780;SDS011;11557;50.884;4.322;2023-03-14T16:34:21;13.40;;;2.85;;